Terminal Aerodrome Forecast
Issued by NWS Charleston, WV

Home | Current Version | Previous Version | Text Only | Print | Product List | Glossary On
Versions: 1 2 3 4 5 6 7 8 9 10 11 12 13 14 15 16 17 18 19 20 21 22 23
000
FTUS41 KRLX 191314 AAB
TAFBKW
TAF AMD
KBKW 191314Z 1913/2012 28007KT P6SM OVC004
      TEMPO 1913/1915 4SM BR
     FM191700 30006KT P6SM BKN015
     FM192100 30007KT P6SM SCT020
     FM200800 VRB03KT 5SM BR FEW020=

USA.gov is the U.S. government's official web portal to all federal, state and local government web resources and services.